Time;durP1;ratioP1;P1;durP2;ratioP2;P2;SDS_P1;SDS_P2;PMS_P1;PMS_P2;Temp;Humidity;BMP_temperature;BMP_pressure;BME280_temperature;BME280_humidity;BME280_pressure;Samples;Min_cycle;Max_cycle;Signal;HPM_P1;HPM_P2
2022/11/04 00:00:27;;;;;;;11.23;7.65;;;;;;;10.90;100.00;99169.66;5062113;28;20084;-79
2022/11/04 00:02:55;;;;;;;10.07;7.60;;;;;;;11.06;100.00;99203.06;5055321;28;20059;-73
2022/11/04 00:05:22;;;;;;;10.98;7.80;;;;;;;10.89;100.00;99175.06;5054607;28;20055;-70
2022/11/04 00:13:19;;;;;;;9.50;6.45;;;;;;;11.09;100.00;99234.66;5063046;28;20049;-81
2022/11/04 00:18:31;;;;;;;7.88;5.82;;;;;;;11.16;100.00;99258.00;5032393;28;20045;-80
2022/11/04 00:29:12;;;;;;;8.38;6.25;;;;;;;11.16;100.00;99251.84;5029585;28;20782;-83
2022/11/04 00:34:24;;;;;;;7.80;6.30;;;;;;;11.16;100.00;99246.53;5041054;28;20063;-83
2022/11/04 00:36:51;;;;;;;9.93;6.75;;;;;;;11.12;100.00;99230.00;5038676;28;20057;-80
2022/11/04 00:39:17;;;;;;;9.07;6.18;;;;;;;11.16;100.00;99247.41;5037004;28;21344;-78
2022/11/04 00:41:44;;;;;;;8.38;6.20;;;;;;;11.11;100.00;99238.91;5047386;28;20049;-84
2022/11/04 00:44:10;;;;;;;11.73;6.45;;;;;;;11.13;100.00;99246.75;5046808;28;20059;-85
2022/11/04 00:46:37;;;;;;;9.15;6.00;;;;;;;11.14;100.00;99237.84;5042849;28;20055;-82
2022/11/04 00:49:03;;;;;;;8.35;6.30;;;;;;;10.95;100.00;99206.44;5039477;28;20427;-71
2022/11/04 00:51:30;;;;;;;9.30;5.78;;;;;;;11.09;100.00;99237.31;5050377;28;20085;-83
2022/11/04 00:53:57;;;;;;;8.18;6.55;;;;;;;11.16;100.00;99238.59;5044840;28;20051;-75
2022/11/04 00:56:23;;;;;;;8.52;6.10;;;;;;;11.15;100.00;99244.84;5045518;28;20428;-79
2022/11/04 00:58:50;;;;;;;9.82;6.28;;;;;;;10.95;100.00;99213.53;5039334;28;20051;-75
2022/11/04 01:01:18;;;;;;;9.15;5.88;;;;;;;11.09;100.00;99243.44;5045856;28;20059;-78
2022/11/04 01:03:50;;;;;;;8.23;5.93;;;;;;;10.90;100.00;99216.50;5039323;28;20040;-79
2022/11/04 01:06:17;;;;;;;8.23;5.90;;;;;;;11.05;100.00;99243.75;5049628;28;20075;-80
2022/11/04 01:08:44;;;;;;;8.20;5.90;;;;;;;11.08;100.00;99249.69;5041363;28;20075;-80
2022/11/04 01:11:11;;;;;;;8.93;5.93;;;;;;;10.94;100.00;99225.09;5050335;28;20056;-79
2022/11/04 01:13:38;;;;;;;10.27;5.93;;;;;;;11.09;100.00;99251.41;5041090;28;20055;-76
2022/11/04 01:16:08;;;;;;;6.90;4.80;;;;;;;11.07;100.00;99265.69;5047796;28;20045;-76
2022/11/04 01:18:35;;;;;;;5.88;5.07;;;;;;;10.98;100.00;99242.47;5037936;28;20671;-72
2022/11/04 01:21:06;;;;;;;8.02;4.85;;;;;;;11.06;100.00;99261.34;5048741;28;20104;-80
2022/11/04 01:23:34;;;;;;;6.22;4.30;;;;;;;10.97;100.00;99261.97;5047909;28;20225;-74
2022/11/04 01:26:03;;;;;;;6.35;4.43;;;;;;;10.75;100.00;99220.16;5056544;28;20044;-80
2022/11/04 01:28:29;;;;;;;5.53;4.53;;;;;;;10.75;100.00;99228.94;5038887;28;20046;-74
2022/11/04 01:30:56;;;;;;;7.22;3.90;;;;;;;10.92;100.00;99272.00;5046587;28;20416;-74
2022/11/04 01:33:23;;;;;;;4.22;3.17;;;;;;;10.88;100.00;99264.25;5040237;28;20080;-80
2022/11/04 01:35:50;;;;;;;5.72;3.67;;;;;;;10.98;100.00;99292.81;5044551;28;20372;-74
2022/11/04 01:38:16;;;;;;;4.63;3.42;;;;;;;10.83;100.00;99268.19;5034793;28;20051;-79
2022/11/04 01:40:43;;;;;;;4.95;3.42;;;;;;;10.95;100.00;99279.75;5045574;28;20052;-79
2022/11/04 01:43:18;;;;;;;5.10;3.25;;;;;;;10.97;100.00;99280.50;5039437;28;20430;-81
2022/11/04 01:45:52;;;;;;;3.25;2.80;;;;;;;10.99;100.00;99290.06;5043144;28;20044;-79
2022/11/04 01:48:26;;;;;;;3.67;2.70;;;;;;;10.97;100.00;99285.81;5037353;28;20941;-73
2022/11/04 01:50:53;;;;;;;3.40;2.65;;;;;;;10.96;100.00;99276.16;5057549;28;20048;-75
2022/11/04 01:53:38;;;;;;;3.97;2.88;;;;;;;10.98;100.00;99293.66;5047753;28;20045;-70
2022/11/04 01:56:13;;;;;;;3.75;2.20;;;;;;;10.96;100.00;99290.25;5044923;28;20072;-74
2022/11/04 01:58:48;;;;;;;3.05;2.10;;;;;;;11.00;100.00;99290.91;5033391;28;20053;-73
2022/11/04 02:01:15;;;;;;;2.58;2.20;;;;;;;10.93;100.00;99277.22;5042784;28;20053;-81
2022/11/04 02:03:51;;;;;;;3.22;2.10;;;;;;;10.93;100.00;99302.84;5038543;28;21097;-75
2022/11/04 02:06:20;;;;;;;2.35;1.90;;;;;;;10.89;100.00;99297.75;5045510;28;20539;-79
2022/11/04 02:08:48;;;;;;;3.35;2.08;;;;;;;10.82;100.00;99299.13;5035832;28;20055;-72
2022/11/04 02:12:48;;;;;;;2.88;2.05;;;;;;;10.81;100.00;99289.47;5049109;28;20042;-78
2022/11/04 02:14:02;;;;;;;2.28;1.90;;;;;;;10.79;100.00;99280.78;5052484;28;20400;-79
2022/11/04 02:16:34;;;;;;;2.35;1.80;;;;;;;10.75;100.00;99283.72;5058143;28;20055;-72
2022/11/04 02:19:16;;;;;;;4.80;1.98;;;;;;;10.72;100.00;99279.47;5053133;28;20077;-73
2022/11/04 02:22:01;;;;;;;3.08;1.70;;;;;;;10.70;100.00;99291.97;5062106;28;20155;-73
2022/11/04 02:25:07;;;;;;;2.85;1.80;;;;;;;10.51;100.00;99259.69;5041767;28;22494;-80
2022/11/04 02:27:52;;;;;;;2.58;1.92;;;;;;;10.60;100.00;99284.69;5017496;28;20047;-74
2022/11/04 02:30:20;;;;;;;2.08;1.50;;;;;;;10.54;100.00;99293.91;5039117;28;20513;-72
2022/11/04 02:33:18;;;;;;;2.10;1.48;;;;;;;10.49;100.00;99285.41;5040211;28;20049;-69
2022/11/04 02:36:17;;;;;;;2.08;1.38;;;;;;;10.48;100.00;99299.59;5041246;28;20141;-75
2022/11/04 02:38:56;;;;;;;2.10;1.73;;;;;;;10.35;100.00;99278.34;5020781;28;20046;-78
2022/11/04 02:41:31;;;;;;;1.98;1.42;;;;;;;10.44;100.00;99298.91;5041383;28;20059;-73
2022/11/04 02:44:15;;;;;;;3.05;1.50;;;;;;;10.45;100.00;99300.63;5040659;28;20059;-69
2022/11/04 02:46:50;;;;;;;3.40;1.50;;;;;;;10.38;100.00;99295.84;5040145;28;20641;-76
2022/11/04 02:49:22;;;;;;;2.75;1.60;;;;;;;10.41;100.00;99301.75;5029660;28;20233;-73
2022/11/04 02:51:57;;;;;;;2.03;1.60;;;;;;;10.35;100.00;99311.91;5046618;28;20504;-78
2022/11/04 02:54:35;;;;;;;2.72;1.27;;;;;;;10.36;100.00;99318.91;5043318;28;20092;-72
2022/11/04 02:57:06;;;;;;;2.15;1.20;;;;;;;10.38;100.00;99327.59;5040173;28;20060;-79
2022/11/04 02:59:40;;;;;;;2.55;1.42;;;;;;;10.39;100.00;99331.94;5031595;28;20049;-79
2022/11/04 03:02:13;;;;;;;1.70;1.40;;;;;;;10.33;100.00;99329.66;5041818;28;20416;-74
2022/11/04 03:04:44;;;;;;;2.58;1.30;;;;;;;10.32;100.00;99333.25;5041248;28;20054;-77
2022/11/04 03:07:14;;;;;;;2.60;1.30;;;;;;;10.33;100.00;99332.31;5040861;28;20073;-81
2022/11/04 03:09:50;;;;;;;2.08;1.20;;;;;;;10.32;100.00;99338.56;5034283;28;20067;-80
2022/11/04 03:12:24;;;;;;;1.80;1.08;;;;;;;10.29;100.00;99338.72;5039606;28;20063;-72
2022/11/04 03:14:58;;;;;;;1.45;1.20;;;;;;;10.19;100.00;99331.38;5042319;28;20049;-72
2022/11/04 03:18:17;;;;;;;1.85;1.20;;;;;;;10.19;100.00;99330.53;5041892;28;20135;-76
2022/11/04 03:20:47;;;;;;;2.40;1.35;;;;;;;10.18;100.00;99326.16;5026178;28;20052;-76
2022/11/04 03:23:14;;;;;;;1.27;1.03;;;;;;;10.16;100.00;99331.53;5041298;28;20052;-75
2022/11/04 03:25:44;;;;;;;1.88;1.10;;;;;;;10.04;100.00;99340.25;5040757;28;20135;-79
2022/11/04 03:28:26;;;;;;;1.55;0.85;;;;;;;9.95;100.00;99346.06;5036039;28;20042;-72
2022/11/04 03:30:58;;;;;;;1.92;1.13;;;;;;;9.89;100.00;99342.97;5039917;28;20655;-79
2022/11/04 03:33:45;;;;;;;1.48;0.93;;;;;;;9.89;100.00;99357.03;5040592;28;20064;-73
2022/11/04 03:36:11;;;;;;;1.08;0.90;;;;;;;9.70;100.00;99356.44;5041745;28;20057;-73
2022/11/04 03:38:38;;;;;;;1.98;1.08;;;;;;;9.64;100.00;99356.78;5042492;28;20056;-76
2022/11/04 03:41:18;;;;;;;2.38;0.90;;;;;;;9.78;100.00;99364.75;5051330;28;20063;-77
2022/11/04 03:43:45;;;;;;;2.58;0.98;;;;;;;9.70;100.00;99369.66;5043277;28;20085;-77
2022/11/04 03:46:12;;;;;;;2.42;1.00;;;;;;;9.70;100.00;99372.31;5049260;28;20129;-70
2022/11/04 03:48:39;;;;;;;2.20;1.23;;;;;;;9.75;100.00;99386.97;5041064;28;20077;-80
2022/11/04 03:51:05;;;;;;;2.15;0.90;;;;;;;9.76;100.00;99387.78;5042816;28;20044;-74
2022/11/04 03:53:32;;;;;;;1.88;0.70;;;;;;;9.69;100.00;99383.81;5044901;28;20059;-76
2022/11/04 03:56:36;;;;;;;2.55;0.85;;;;;;;9.66;100.00;99402.50;5039397;28;20522;-78
2022/11/04 03:59:16;;;;;;;3.67;1.00;;;;;;;9.54;100.00;99377.66;5031918;28;20072;-69
2022/11/04 04:01:51;;;;;;;1.85;0.82;;;;;;;9.48;100.00;99355.06;5042278;28;20053;-80
2022/11/04 04:04:39;;;;;;;2.15;0.80;;;;;;;9.61;100.00;99380.75;5040902;28;20054;-78
2022/11/04 04:07:18;;;;;;;3.17;0.93;;;;;;;9.55;100.00;99382.00;5042081;28;20074;-79
2022/11/04 04:10:03;;;;;;;1.48;0.80;;;;;;;9.50;100.00;99392.81;5039570;28;20070;-71
2022/11/04 04:12:36;;;;;;;1.98;0.80;;;;;;;9.35;100.00;99383.16;5046214;28;20135;-79
2022/11/04 04:15:24;;;;;;;1.17;0.70;;;;;;;9.41;100.00;99387.22;5045686;28;20048;-68
2022/11/04 04:17:55;;;;;;;3.70;0.90;;;;;;;9.52;100.00;99391.88;5038347;28;20179;-68
2022/11/04 04:20:26;;;;;;;1.65;0.70;;;;;;;9.26;100.00;99373.13;5036783;28;20129;-79
2022/11/04 04:27:29;;;;;;;2.83;0.98;;;;;;;9.43;100.00;99410.00;5039899;28;20504;-78
2022/11/04 04:28:45;;;;;;;1.42;0.88;;;;;;;9.32;100.00;99388.59;5038609;28;20053;-71
2022/11/04 04:31:48;;;;;;;3.08;0.70;;;;;;;9.30;100.00;99393.13;5038441;28;20639;-71
2022/11/04 04:34:05;;;;;;;3.58;1.00;;;;;;;9.20;100.00;99388.47;5045933;28;20055;-75
2022/11/04 04:36:38;;;;;;;1.33;0.88;;;;;;;9.20;100.00;99389.31;5046250;28;20047;-79
2022/11/04 04:47:32;;;;;;;1.75;0.80;;;;;;;9.13;100.00;99382.66;5063539;28;20059;-77
2022/11/04 04:50:00;;;;;;;1.50;0.93;;;;;;;9.11;100.00;99385.44;5036584;28;20132;-72
2022/11/04 04:52:35;;;;;;;2.03;0.90;;;;;;;9.26;100.00;99420.69;5045216;28;20132;-72
2022/11/04 04:55:02;;;;;;;3.40;1.63;;;;;;;9.12;100.00;99397.69;5044304;28;20057;-69
2022/11/04 04:57:29;;;;;;;4.75;1.20;;;;;;;9.19;100.00;99392.91;5045029;28;20086;-75
2022/11/04 04:59:55;;;;;;;1.63;0.93;;;;;;;9.22;100.00;99398.00;5034084;28;20059;-75
2022/11/04 05:02:22;;;;;;;4.22;1.00;;;;;;;9.24;100.00;99396.13;5045137;28;20484;-75
2022/11/04 05:04:49;;;;;;;3.17;1.13;;;;;;;9.19;100.00;99392.91;5042316;28;20069;-79
2022/11/04 05:07:15;;;;;;;1.90;1.30;;;;;;;8.99;100.00;99372.88;5045720;28;20048;-79
2022/11/04 05:09:42;;;;;;;2.15;1.10;;;;;;;9.03;100.00;99379.72;5036910;28;20048;-78
2022/11/04 05:12:09;;;;;;;2.55;1.27;;;;;;;9.15;100.00;99391.34;5041836;28;20045;-73
2022/11/04 05:14:35;;;;;;;4.25;1.58;;;;;;;9.18;100.00;99399.09;5042159;28;20045;-80
2022/11/04 05:17:02;;;;;;;2.67;1.40;;;;;;;9.09;100.00;99383.81;5044739;28;20052;-78
2022/11/04 05:19:29;;;;;;;2.40;1.42;;;;;;;9.15;100.00;99405.41;5038250;28;20051;-68
2022/11/04 05:21:55;;;;;;;4.05;1.52;;;;;;;9.04;100.00;99383.19;5049201;28;20166;-68
2022/11/04 05:24:22;;;;;;;5.22;1.70;;;;;;;9.10;100.00;99396.06;5046397;28;20402;-79
2022/11/04 05:26:48;;;;;;;1.98;1.40;;;;;;;9.06;100.00;99403.31;5055248;28;20044;-75
2022/11/04 05:29:15;;;;;;;3.25;1.58;;;;;;;9.03;100.00;99413.19;5041245;28;20517;-71
2022/11/04 05:31:41;;;;;;;7.47;1.67;;;;;;;8.82;100.00;99382.69;5044325;28;20049;-73
2022/11/04 05:34:11;;;;;;;6.10;1.90;;;;;;;9.01;100.00;99420.34;5047846;28;20057;-69
2022/11/04 05:36:39;;;;;;;7.45;2.22;;;;;;;8.97;100.00;99414.38;5045641;28;20049;-78
2022/11/04 05:39:06;;;;;;;3.92;1.88;;;;;;;9.00;100.00;99410.72;5048016;28;20051;-71
2022/11/04 05:41:33;;;;;;;2.58;1.90;;;;;;;8.81;100.00;99378.38;5041436;28;20040;-71
2022/11/04 05:44:01;;;;;;;5.78;2.30;;;;;;;8.98;100.00;99412.59;5042132;28;20041;-79
2022/11/04 05:46:28;;;;;;;4.38;1.95;;;;;;;8.97;100.00;99400.34;5045598;28;20508;-76
2022/11/04 05:48:55;;;;;;;7.43;2.55;;;;;;;8.99;100.00;99399.28;5043560;28;20758;-71
2022/11/04 05:51:25;;;;;;;5.15;2.17;;;;;;;8.88;100.00;99377.09;5045621;28;20049;-75
2022/11/04 05:53:51;;;;;;;5.80;2.07;;;;;;;9.04;100.00;99409.59;5046732;28;20052;-70
2022/11/04 05:56:18;;;;;;;4.20;2.22;;;;;;;8.91;100.00;99377.78;5043070;28;20049;-73
2022/11/04 05:58:45;;;;;;;5.18;2.45;;;;;;;9.03;100.00;99397.34;5043456;28;20103;-76
2022/11/04 06:01:23;;;;;;;6.95;2.40;;;;;;;9.07;100.00;99398.88;5035120;28;20186;-72
2022/11/04 06:03:51;;;;;;;6.25;2.22;;;;;;;8.98;100.00;99370.34;5043439;28;20049;-73
2022/11/04 06:06:17;;;;;;;7.63;2.22;;;;;;;9.22;100.00;99398.00;5048559;28;20045;-76
2022/11/04 06:08:44;;;;;;;8.05;2.00;;;;;;;9.29;100.00;99401.97;5044058;28;20418;-80
2022/11/04 06:11:11;;;;;;;5.25;2.08;;;;;;;9.35;100.00;99401.63;5036712;28;20060;-79
2022/11/04 06:13:37;;;;;;;6.20;1.95;;;;;;;9.31;100.00;99378.13;5040911;28;20041;-77
2022/11/04 06:16:04;;;;;;;3.63;1.92;;;;;;;9.44;100.00;99389.72;5046641;28;20397;-70
2022/11/04 06:18:30;;;;;;;5.75;1.95;;;;;;;9.48;100.00;99389.41;5042212;28;20048;-76
2022/11/04 06:21:28;;;;;;;8.10;1.90;;;;;;;9.52;100.00;99381.31;5035999;28;20057;-76
2022/11/04 06:23:56;;;;;;;5.88;2.25;;;;;;;9.55;100.00;99384.63;5041854;28;20355;-74
2022/11/04 06:26:27;;;;;;;5.30;2.13;;;;;;;9.52;100.00;99378.66;5038115;28;20064;-76
2022/11/04 06:28:55;;;;;;;4.95;1.90;;;;;;;9.53;100.00;99386.50;5040394;28;20036;-79
2022/11/04 06:31:22;;;;;;;11.85;2.58;;;;;;;9.49;100.00;99401.69;5036174;28;20051;-70
2022/11/04 06:33:49;;;;;;;7.25;2.15;;;;;;;9.48;100.00;99397.34;5044502;28;20486;-77
2022/11/04 06:36:16;;;;;;;6.80;2.10;;;;;;;9.49;100.00;99406.97;5043988;28;20082;-79
2022/11/04 06:38:43;;;;;;;5.78;2.10;;;;;;;9.37;100.00;99394.47;5042850;28;20067;-78
2022/11/04 06:41:13;;;;;;;7.25;3.35;;;;;;;9.48;100.00;99417.63;5031880;28;20417;-75
2022/11/04 06:43:39;;;;;;;5.90;2.47;;;;;;;9.41;100.00;99424.22;5045909;28;20120;-79
2022/11/04 06:46:23;;;;;;;9.48;2.90;;;;;;;9.28;100.00;99436.44;5045573;28;20049;-80
2022/11/04 06:48:50;;;;;;;8.80;2.88;;;;;;;9.36;100.00;99450.91;5043414;28;20153;-74
2022/11/04 06:51:16;;;;;;;11.63;2.60;;;;;;;9.27;100.00;99435.59;5039734;28;20080;-80
2022/11/04 06:53:43;;;;;;;7.78;2.20;;;;;;;9.42;100.00;99445.28;5041834;28;20445;-70
2022/11/04 06:56:11;;;;;;;6.68;2.20;;;;;;;9.41;100.00;99446.22;5039527;28;20083;-80
2022/11/04 06:58:37;;;;;;;6.80;2.15;;;;;;;9.24;100.00;99411.97;5052505;28;20068;-80
2022/11/04 07:01:04;;;;;;;9.35;2.55;;;;;;;9.37;100.00;99447.31;5036722;28;20811;-77
2022/11/04 07:03:40;;;;;;;13.95;2.88;;;;;;;9.34;100.00;99450.13;5042997;28;20052;-77
2022/11/04 07:06:08;;;;;;;8.20;2.20;;;;;;;9.26;100.00;99449.72;5051480;28;20135;-72
2022/11/04 07:08:35;;;;;;;6.82;2.40;;;;;;;9.28;100.00;99457.56;5056350;28;20045;-71
2022/11/04 07:11:02;;;;;;;5.65;2.42;;;;;;;9.27;100.00;99456.72;5045841;28;20049;-78
2022/11/04 07:13:29;;;;;;;6.88;2.13;;;;;;;9.28;100.00;99457.56;5043357;28;20148;-68
2022/11/04 07:15:56;;;;;;;10.00;2.10;;;;;;;9.28;100.00;99449.66;5040279;28;20042;-68
2022/11/04 07:18:23;;;;;;;7.07;2.20;;;;;;;9.31;100.00;99450.31;5048503;28;20893;-77
2022/11/04 07:20:50;;;;;;;7.40;2.70;;;;;;;9.36;100.00;99464.13;5033789;28;20103;-74
2022/11/04 07:23:17;;;;;;;5.32;2.40;;;;;;;9.42;100.00;99471.72;5046107;28;20140;-79
2022/11/04 07:25:43;;;;;;;7.13;2.40;;;;;;;9.41;100.00;99475.28;5041696;28;20734;-75
2022/11/04 07:28:10;;;;;;;7.82;2.67;;;;;;;9.43;100.00;99478.69;5037405;28;20052;-75
2022/11/04 07:30:37;;;;;;;8.77;2.60;;;;;;;9.43;100.00;99478.69;5028970;28;20048;-72
2022/11/04 07:33:04;;;;;;;10.85;2.42;;;;;;;9.47;100.00;99485.50;5040909;28;20132;-77
2022/11/04 07:35:31;;;;;;;8.85;2.83;;;;;;;9.51;100.00;99483.53;5043151;28;20124;-78
2022/11/04 07:37:57;;;;;;;8.20;2.33;;;;;;;9.54;100.00;99485.16;5047996;28;20056;-77
2022/11/04 07:40:24;;;;;;;5.53;2.30;;;;;;;9.64;100.00;99478.38;5041522;28;20060;-71
2022/11/04 07:42:51;;;;;;;10.07;2.35;;;;;;;9.62;100.00;99475.81;5041026;28;20059;-71
2022/11/04 07:45:17;;;;;;;9.15;2.40;;;;;;;9.65;100.00;99480.09;5046324;28;20170;-75
2022/11/04 07:47:44;;;;;;;5.88;2.72;;;;;;;9.62;100.00;99485.53;5038425;28;20462;-71
2022/11/04 07:50:10;;;;;;;6.05;2.72;;;;;;;9.46;100.00;99473.22;5036102;28;20750;-77
2022/11/04 07:52:37;;;;;;;8.23;2.97;;;;;;;9.62;100.00;99496.13;5039266;28;20041;-73
2022/11/04 07:55:04;;;;;;;6.50;2.97;;;;;;;9.66;100.00;99495.00;5040661;28;20048;-75
2022/11/04 07:57:31;;;;;;;10.25;3.08;;;;;;;9.68;100.00;99496.63;5028883;28;20048;-74
2022/11/04 07:59:58;;;;;;;8.50;2.80;;;;;;;9.72;100.00;99495.53;5037565;28;20044;-74
2022/11/04 08:02:25;;;;;;;6.68;3.13;;;;;;;9.79;100.00;99498.66;5033203;28;20482;-74
2022/11/04 08:04:59;;;;;;;13.35;3.85;;;;;;;9.80;100.00;99490.63;5040493;28;20111;-75
2022/11/04 08:07:25;;;;;;;7.55;3.10;;;;;;;9.87;100.00;99485.00;5039005;28;20107;-76
2022/11/04 08:09:52;;;;;;;11.77;3.35;;;;;;;9.91;100.00;99486.53;5044174;28;20041;-70
2022/11/04 08:12:20;;;;;;;11.77;3.78;;;;;;;9.90;100.00;99490.97;5032483;28;20109;-75
2022/11/04 08:14:47;;;;;;;9.77;3.22;;;;;;;9.94;100.00;99489.81;5039024;28;20159;-76
2022/11/04 08:17:14;;;;;;;8.45;3.08;;;;;;;9.99;100.00;99501.00;5039367;28;20041;-75
2022/11/04 08:19:40;;;;;;;8.93;3.33;;;;;;;10.09;100.00;99499.50;5042007;28;20050;-73
2022/11/04 08:22:07;;;;;;;11.35;2.95;;;;;;;10.00;100.00;99468.31;5028968;28;20043;-75
2022/11/04 08:24:34;;;;;;;6.97;2.90;;;;;;;10.10;100.00;99487.13;5045583;28;20478;-76
2022/11/04 08:27:01;;;;;;;6.05;2.80;;;;;;;10.16;100.00;99487.63;5047988;28;20045;-73
2022/11/04 08:29:28;;;;;;;10.55;3.05;;;;;;;10.24;100.00;99492.47;5041712;28;20037;-74
2022/11/04 08:31:54;;;;;;;7.38;2.80;;;;;;;10.25;100.00;99501.25;5029891;28;20080;-72
2022/11/04 08:34:21;;;;;;;11.32;2.85;;;;;;;10.22;100.00;99496.19;5041959;28;20068;-75
2022/11/04 08:36:48;;;;;;;8.63;2.80;;;;;;;10.26;100.00;99492.38;5041764;28;20107;-75
2022/11/04 08:39:15;;;;;;;9.02;2.60;;;;;;;10.38;100.00;99489.03;5042250;28;20049;-74
2022/11/04 08:41:44;;;;;;;8.18;2.47;;;;;;;10.39;100.00;99474.84;5036282;28;20053;-77
2022/11/04 08:44:13;;;;;;;6.63;2.67;;;;;;;10.40;100.00;99484.47;5037806;28;20140;-71
2022/11/04 08:46:42;;;;;;;10.53;2.33;;;;;;;10.40;100.00;99481.81;5037413;28;20052;-74
2022/11/04 08:49:09;;;;;;;8.45;2.58;;;;;;;10.35;100.00;99476.81;5044425;28;20575;-75
2022/11/04 08:51:43;;;;;;;9.65;2.78;;;;;;;10.39;100.00;99477.50;5039273;28;20401;-74
2022/11/04 08:54:10;;;;;;;8.35;2.35;;;;;;;10.37;100.00;99480.22;5042381;28;20048;-76
2022/11/04 08:56:39;;;;;;;6.32;2.60;;;;;;;10.38;100.00;99481.09;5038194;28;20128;-74
2022/11/04 08:59:05;;;;;;;12.07;2.42;;;;;;;10.40;100.00;99481.81;5046619;28;20049;-74
2022/11/04 09:01:34;;;;;;;6.15;2.50;;;;;;;10.49;100.00;99489.22;5038984;28;20042;-76
2022/11/04 09:04:02;;;;;;;9.68;2.75;;;;;;;10.59;100.00;99490.34;5050198;28;20485;-75
2022/11/04 09:06:32;;;;;;;4.75;2.42;;;;;;;10.59;100.00;99468.31;5046686;28;20065;-76
2022/11/04 09:09:03;;;;;;;7.35;2.03;;;;;;;10.68;100.00;99491.59;5044678;28;22039;-72
2022/11/04 09:11:37;;;;;;;6.55;2.40;;;;;;;10.68;100.00;99489.78;5037427;28;20053;-73
2022/11/04 09:14:04;;;;;;;9.82;2.72;;;;;;;10.58;100.00;99475.41;5045906;28;20107;-78
2022/11/04 09:16:33;;;;;;;6.63;2.50;;;;;;;10.64;100.00;99482.97;5048832;28;20400;-77
2022/11/04 09:19:00;;;;;;;5.72;2.25;;;;;;;10.70;100.00;99476.47;5047160;28;20041;-76
2022/11/04 09:21:27;;;;;;;5.32;2.85;;;;;;;10.87;100.00;99489.47;5037174;28;20507;-70
2022/11/04 09:23:55;;;;;;;9.05;2.88;;;;;;;10.94;100.00;99496.09;5049952;28;20064;-73
2022/11/04 09:26:22;;;;;;;4.63;2.60;;;;;;;10.96;100.00;99509.25;5042341;28;20049;-75
2022/11/04 09:28:56;;;;;;;7.88;2.75;;;;;;;11.00;100.00;99501.03;5044743;28;20045;-74
2022/11/04 09:31:28;;;;;;;9.90;2.72;;;;;;;10.97;100.00;99501.22;5049557;28;20140;-71
2022/11/04 09:33:55;;;;;;;6.72;2.50;;;;;;;11.14;100.00;99494.84;5048265;28;20144;-76
2022/11/04 09:36:22;;;;;;;10.77;2.92;;;;;;;11.21;100.00;99489.06;5048760;28;20132;-76
2022/11/04 09:38:49;;;;;;;9.63;2.83;;;;;;;11.41;100.00;99497.53;5051870;28;20056;-72
2022/11/04 09:41:34;;;;;;;6.20;2.60;;;;;;;11.44;100.00;99505.28;5033056;28;20207;-73
2022/11/04 09:44:16;;;;;;;9.57;3.05;;;;;;;11.55;100.00;99495.69;5046285;28;20072;-72
2022/11/04 09:46:48;;;;;;;8.63;2.95;;;;;;;11.58;100.00;99495.50;5048729;28;20060;-73
2022/11/04 09:49:15;;;;;;;10.25;3.17;;;;;;;11.61;100.00;99494.44;5044621;28;20047;-74
2022/11/04 09:51:45;;;;;;;8.07;2.65;;;;;;;11.68;100.00;99492.22;5046583;28;20511;-75
2022/11/04 09:54:33;;;;;;;8.57;3.28;;;;;;;11.80;100.00;99502.94;5057048;28;20477;-75
2022/11/04 09:57:01;;;;;;;7.03;2.50;;;;;;;11.54;100.00;99501.94;5039665;28;20187;-74
2022/11/04 09:59:32;;;;;;;8.55;2.65;;;;;;;11.64;100.00;99519.91;5042365;28;20572;-70
2022/11/04 10:02:06;;;;;;;7.95;2.45;;;;;;;11.67;100.00;99514.38;5033508;28;20053;-75
2022/11/04 10:05:10;;;;;;;9.82;2.60;;;;;;;11.40;100.00;99495.84;5049844;28;20045;-73
2022/11/04 10:08:21;;;;;;;5.70;2.40;;;;;;;11.58;100.00;99523.81;5051813;28;20042;-72
2022/11/04 10:11:20;;;;;;;8.07;2.30;;;;;;;11.67;100.00;99525.00;5003753;28;20056;-75
2022/11/04 10:14:22;;;;;;;8.18;2.47;;;;;;;11.66;100.00;99502.06;4976837;28;20330;-78
2022/11/04 10:17:02;;;;;;;4.70;2.20;;;;;;;12.05;100.00;99517.22;5030810;28;20048;-75
2022/11/04 10:20:11;;;;;;;9.82;2.30;;;;;;;12.30;100.00;99522.56;5037496;28;20136;-75
2022/11/04 10:22:58;;;;;;;4.53;2.22;;;;;;;12.54;100.00;99510.28;5031948;28;20132;-76
2022/11/04 10:25:52;;;;;;;5.30;2.28;;;;;;;12.68;98.65;99506.66;5037206;28;20053;-75
2022/11/04 10:28:25;;;;;;;7.32;2.17;;;;;;;12.88;99.31;99503.47;5049672;28;20045;-76
2022/11/04 10:30:51;;;;;;;3.63;1.52;;;;;;;13.08;96.92;99499.38;5042360;28;20052;-75
2022/11/04 10:33:38;;;;;;;6.53;1.83;;;;;;;13.16;95.12;99485.56;5040472;28;20045;-71
2022/11/04 10:36:08;;;;;;;3.70;1.38;;;;;;;13.40;94.62;99505.06;5047713;28;20041;-78
2022/11/04 10:38:37;;;;;;;3.30;1.60;;;;;;;13.59;94.46;99499.25;5057641;28;20045;-72
2022/11/04 10:41:25;;;;;;;4.47;1.63;;;;;;;13.70;91.69;99492.16;5036537;28;20065;-75
2022/11/04 10:44:07;;;;;;;5.35;1.52;;;;;;;13.76;91.26;99487.38;5033287;28;20141;-74
2022/11/04 10:46:42;;;;;;;5.15;2.05;;;;;;;13.55;91.34;99477.34;5039061;28;20056;-76
2022/11/04 10:50:04;;;;;;;5.25;1.38;;;;;;;13.76;89.83;99482.03;5041938;28;20051;-74
2022/11/04 10:52:54;;;;;;;6.63;1.63;;;;;;;13.82;87.48;99484.25;5030542;28;20064;-72
2022/11/04 10:55:40;;;;;;;6.00;1.60;;;;;;;13.39;88.09;99481.22;5038595;28;20072;-75
2022/11/04 10:58:17;;;;;;;9.98;1.92;;;;;;;13.00;91.25;99476.00;5043582;28;20049;-77
2022/11/04 11:00:43;;;;;;;5.95;1.67;;;;;;;12.79;94.17;99474.88;5045172;28;20053;-72
2022/11/04 11:03:32;;;;;;;9.25;1.70;;;;;;;12.69;94.38;99478.28;5034172;28;20050;-74
2022/11/04 11:06:23;;;;;;;6.93;1.90;;;;;;;12.48;95.10;99478.81;5048812;28;20046;-75
2022/11/04 11:08:53;;;;;;;7.32;1.73;;;;;;;12.34;96.46;99472.75;5042468;28;20052;-73
2022/11/04 11:11:47;;;;;;;6.07;1.38;;;;;;;12.26;95.80;99479.47;5040788;28;20052;-71
2022/11/04 11:14:20;;;;;;;5.07;1.50;;;;;;;12.03;96.43;99458.09;5037156;28;20102;-75
2022/11/04 11:16:47;;;;;;;7.13;1.98;;;;;;;12.02;97.39;99478.47;5044497;28;20052;-75
2022/11/04 11:19:23;;;;;;;6.90;1.45;;;;;;;12.03;97.88;99477.50;5037537;28;20037;-76
2022/11/04 11:21:53;;;;;;;5.65;1.42;;;;;;;12.08;97.72;99467.44;5044603;28;20077;-70
2022/11/04 11:24:26;;;;;;;5.25;1.63;;;;;;;11.91;96.68;99430.59;5036840;28;20046;-78
2022/11/04 11:26:59;;;;;;;7.32;3.50;;;;;;;12.43;97.15;99464.19;5050531;28;20505;-71
2022/11/04 11:29:39;;;;;;;5.65;2.05;;;;;;;12.74;93.87;99458.41;5058242;28;20132;-68
2022/11/04 11:32:26;;;;;;;7.38;1.88;;;;;;;12.97;92.46;99462.94;5038667;28;20056;-75
2022/11/04 11:34:53;;;;;;;8.27;2.65;;;;;;;13.08;91.31;99466.63;5053668;28;20052;-74
2022/11/04 11:37:23;;;;;;;4.88;1.45;;;;;;;13.23;90.64;99465.53;5051443;28;20143;-77
2022/11/04 11:39:50;;;;;;;7.70;1.43;;;;;;;13.50;89.83;99474.19;5046601;28;20051;-73
2022/11/04 11:42:20;;;;;;;5.43;1.90;;;;;;;13.64;88.29;99468.69;5033910;28;20685;-75
2022/11/04 11:44:51;;;;;;;7.18;2.40;;;;;;;13.69;87.61;99479.00;5044989;28;20067;-73
2022/11/04 11:47:23;;;;;;;9.80;1.90;;;;;;;13.48;86.37;99478.75;5046339;28;20135;-74
2022/11/04 11:50:04;;;;;;;5.90;1.42;;;;;;;13.32;88.35;99475.53;5065028;28;20128;-78
2022/11/04 11:52:33;;;;;;;6.00;1.80;;;;;;;12.98;88.76;99477.94;5037140;28;20045;-72
2022/11/04 11:55:06;;;;;;;5.75;1.65;;;;;;;12.91;90.28;99471.34;5045441;28;20463;-79
2022/11/04 11:57:46;;;;;;;4.00;1.35;;;;;;;12.83;89.29;99471.03;5047544;28;20076;-69
2022/11/04 12:00:40;;;;;;;4.43;1.40;;;;;;;12.68;90.84;99469.47;5050430;28;20060;-68
2022/11/04 12:03:15;;;;;;;4.95;1.30;;;;;;;12.61;91.30;99469.03;5039636;28;20049;-74
2022/11/04 12:05:54;;;;;;;3.90;1.25;;;;;;;12.55;92.03;99450.03;5048140;28;20059;-77
2022/11/04 12:08:58;;;;;;;9.05;1.77;;;;;;;12.68;90.45;99464.16;5059007;28;20055;-76
2022/11/04 12:12:03;;;;;;;6.57;1.40;;;;;;;12.80;91.32;99462.44;5050430;28;20076;-72
2022/11/04 12:14:48;;;;;;;7.22;1.92;;;;;;;12.92;88.91;99458.91;5058163;28;20053;-75
2022/11/04 12:17:52;;;;;;;7.03;1.70;;;;;;;12.99;88.29;99458.38;5050528;28;20045;-69
2022/11/04 12:20:48;;;;;;;5.60;1.30;;;;;;;12.83;86.76;99433.00;5047966;28;20064;-76
2022/11/04 12:23:33;;;;;;;4.18;1.40;;;;;;;12.79;86.06;99439.47;5028994;28;20050;-76
2022/11/04 12:26:26;;;;;;;5.50;1.88;;;;;;;12.68;87.95;99458.00;5037930;28;20053;-79